createdAt,value
2024-04-23T00:01:23.135Z,102228.41
2024-04-23T00:03:45.175Z,102224.59
2024-04-23T00:06:06.999Z,102226.25
2024-04-23T00:08:28.789Z,102224.59
2024-04-23T00:10:50.680Z,102226.50
2024-04-23T00:13:12.517Z,102219.41
2024-04-23T00:15:34.394Z,102222.38
2024-04-23T00:17:56.310Z,102227.03
2024-04-23T00:20:18.148Z,102221.56
2024-04-23T00:22:40.044Z,102217.44
2024-04-23T00:25:01.921Z,102215.78
2024-04-23T00:27:23.746Z,102219.34
2024-04-23T00:29:45.577Z,102210.03
2024-04-23T00:32:07.467Z,102215.19
2024-04-23T00:34:29.354Z,102210.50
2024-04-23T00:37:00.719Z,102209.94
2024-04-23T00:39:24.079Z,102203.06
2024-04-23T00:41:45.938Z,102215.91
2024-04-23T00:44:08.227Z,102206.09
2024-04-23T00:46:31.383Z,102210.72
2024-04-23T00:48:53.256Z,102202.53
2024-04-23T00:51:15.147Z,102212.34
2024-04-23T00:53:37.465Z,102205.00
2024-04-23T00:55:59.394Z,102204.16
2024-04-23T00:58:21.891Z,102208.00
2024-04-23T01:00:43.764Z,102206.34
2024-04-23T01:03:05.956Z,102206.34
2024-04-23T01:05:28.352Z,102208.00
2024-04-23T01:07:50.247Z,102202.78
2024-04-23T01:10:12.113Z,102207.44
2024-04-23T01:12:34.102Z,102212.88
2024-04-23T01:14:58.067Z,102203.03
2024-04-23T01:17:22.625Z,102198.34
2024-04-23T01:19:51.474Z,102209.78
2024-04-23T01:22:30.339Z,102203.75
2024-04-23T01:25:12.417Z,102196.91
2024-04-23T01:27:35.655Z,102203.47
2024-04-23T01:29:57.979Z,102193.06
2024-04-23T01:32:23.877Z,102197.44
2024-04-23T01:34:46.785Z,102194.72
2024-04-23T01:37:10.881Z,102196.34
2024-04-23T01:39:33.704Z,102193.63
2024-04-23T01:41:55.809Z,102177.75
2024-04-23T01:44:19.791Z,102182.16
2024-04-23T01:46:42.024Z,102185.94
2024-04-23T01:49:04.549Z,102178.88
2024-04-23T01:51:26.675Z,102178.88
2024-04-23T01:53:48.539Z,102171.75
2024-04-23T01:56:10.703Z,102173.94
2024-04-23T01:58:32.777Z,102164.59
2024-04-23T02:00:58.669Z,102163.78
2024-04-23T02:03:22.937Z,102163.22
2024-04-23T02:05:45.749Z,102159.09
2024-04-23T02:08:08.442Z,102163.16
2024-04-23T02:10:30.888Z,102153.28
2024-04-23T02:12:53.019Z,102156.53
2024-04-23T02:15:14.812Z,102149.69
2024-04-23T02:17:37.618Z,102155.38
2024-04-23T02:19:59.543Z,102151.84
2024-04-23T02:22:21.430Z,102149.63
2024-04-23T02:24:43.275Z,102143.84
2024-04-23T02:27:05.475Z,102145.19
2024-04-23T02:29:27.357Z,102142.97
2024-04-23T02:31:49.231Z,102145.66
2024-04-23T02:34:12.597Z,102147.00
2024-04-23T02:36:34.410Z,102141.78
2024-04-23T02:38:57.394Z,102145.03
2024-04-23T02:41:20.373Z,102145.84
2024-04-23T02:43:42.228Z,102146.13
2024-04-23T02:46:04.801Z,102143.63
2024-04-23T02:48:26.761Z,102137.59
2024-04-23T02:50:48.742Z,102137.84
2024-04-23T02:53:10.667Z,102139.69
2024-04-23T02:55:32.443Z,102137.25
2024-04-23T02:57:54.349Z,102145.66
2024-04-23T03:00:16.462Z,102142.94
2024-04-23T03:02:38.594Z,102139.41
2024-04-23T03:05:00.870Z,102138.06
2024-04-23T03:07:22.911Z,102138.88
2024-04-23T03:09:44.738Z,102144.34
2024-04-23T03:12:06.844Z,102139.69
2024-04-23T03:14:28.675Z,102138.88
2024-04-23T03:16:50.682Z,102142.19
2024-04-23T03:19:12.681Z,102127.16
2024-04-23T03:21:34.534Z,102136.16
2024-04-23T03:23:56.491Z,102142.19
2024-04-23T03:26:19.397Z,102135.06
2024-04-23T03:28:41.246Z,102127.75
2024-04-23T03:31:03.184Z,102119.56
2024-04-23T03:33:26.635Z,102122.84
2024-04-23T03:35:48.445Z,102117.66
2024-04-23T03:38:10.245Z,102127.47
2024-04-23T03:40:32.651Z,102128.28
2024-04-23T03:42:54.498Z,102121.78
2024-04-23T03:45:16.388Z,102123.41
2024-04-23T03:47:38.356Z,102133.50
2024-04-23T03:50:00.507Z,102128.63
2024-04-23T03:52:23.147Z,102128.84
2024-04-23T03:54:46.095Z,102128.03
2024-04-23T03:57:08.040Z,102128.03
2024-04-23T03:59:29.852Z,102129.69
2024-04-23T04:02:11.798Z,102120.69
2024-04-23T04:04:52.302Z,102129.44
2024-04-23T04:07:14.192Z,102130.81
2024-04-23T04:09:36.074Z,102120.44
2024-04-23T04:11:59.353Z,102121.81
2024-04-23T04:14:21.250Z,102128.91
2024-04-23T04:16:43.133Z,102124.31
2024-04-23T04:19:05.109Z,102122.66
2024-04-23T04:21:27.041Z,102122.91
2024-04-23T04:23:48.901Z,102124.81
2024-04-23T04:26:13.234Z,102112.50
2024-04-23T04:28:35.099Z,102113.66
2024-04-23T04:30:57.146Z,102118.28
2024-04-23T04:33:19.029Z,102123.75
2024-04-23T04:35:40.934Z,102121.00
2024-04-23T04:38:02.792Z,102121.81
2024-04-23T04:40:24.722Z,102117.19
2024-04-23T04:42:46.721Z,102123.22
2024-04-23T04:45:08.636Z,102126.50
2024-04-23T04:47:30.595Z,102120.25
2024-04-23T04:49:52.621Z,102113.47
2024-04-23T04:52:14.427Z,102118.63
2024-04-23T04:54:36.259Z,102114.31
2024-04-23T04:56:58.108Z,102124.47
2024-04-23T04:59:19.917Z,102123.69
2024-04-23T05:01:41.871Z,102131.13
2024-04-23T05:04:04.641Z,102121.31
2024-04-23T05:06:26.597Z,102128.16
2024-04-23T05:08:48.425Z,102125.75
2024-04-23T05:11:10.418Z,102123.06
2024-04-23T05:13:32.367Z,102122.56
2024-04-23T05:15:54.159Z,102127.47
2024-04-23T05:18:16.038Z,102116.31
2024-04-23T05:20:39.153Z,102111.47
2024-04-23T05:23:01.096Z,102108.53
2024-04-23T05:25:24.496Z,102113.50
2024-04-23T05:27:47.587Z,102115.47
2024-04-23T05:30:19.995Z,102110.56
2024-04-23T05:32:52.409Z,102111.13
2024-04-23T05:35:14.965Z,102111.16
2024-04-23T05:37:36.985Z,102117.22
2024-04-23T05:39:58.836Z,102109.06
2024-04-23T05:42:21.678Z,102113.75
2024-04-23T05:44:43.554Z,102117.56
2024-04-23T05:47:05.542Z,102118.72
2024-04-23T05:50:28.286Z,102112.72
2024-04-23T05:54:09.414Z,102111.66
2024-04-23T05:56:50.558Z,102122.63
2024-04-23T05:59:12.451Z,102128.09
2024-04-23T06:01:34.380Z,102127.00
2024-04-23T06:03:56.204Z,102131.94
2024-04-23T06:06:18.057Z,102135.22
2024-04-23T06:08:39.863Z,102128.72
2024-04-23T06:11:01.923Z,102135.84
2024-04-23T06:13:23.875Z,102127.69
2024-04-23T06:15:45.677Z,102127.97
2024-04-23T06:18:07.716Z,102131.59
2024-04-23T06:20:29.705Z,102129.72
2024-04-23T06:22:53.903Z,102131.34
2024-04-23T06:25:16.360Z,102134.94
2024-04-23T06:27:40.140Z,102138.53
2024-04-23T06:30:07.743Z,102131.94
2024-04-23T06:32:29.725Z,102131.69
2024-04-23T06:34:51.623Z,102133.94
2024-04-23T06:37:14.173Z,102127.44
2024-04-23T06:39:36.183Z,102127.47
2024-04-23T06:41:58.132Z,102118.72
2024-04-23T06:44:19.943Z,102115.72
2024-04-23T06:46:41.748Z,102122.00
2024-04-23T06:49:03.528Z,102125.84
2024-04-23T06:51:25.401Z,102120.91
2024-04-23T06:53:47.265Z,102120.09
2024-04-23T06:56:09.108Z,102117.88
2024-04-23T06:58:31.932Z,102123.88
2024-04-23T07:00:59.871Z,102117.81
2024-04-23T07:03:21.797Z,102125.75
2024-04-23T07:05:43.762Z,102125.47
2024-04-23T07:08:06.398Z,102117.78
2024-04-23T07:10:28.281Z,102116.94
2024-04-23T07:12:50.089Z,102123.72
2024-04-23T07:15:11.957Z,102113.53
2024-04-23T07:17:33.984Z,102117.06
2024-04-23T07:19:56.018Z,102119.97
2024-04-23T07:22:18.465Z,102123.81
2024-04-23T07:24:41.584Z,102118.84
2024-04-23T07:27:03.781Z,102114.63
2024-04-23T07:29:28.831Z,102112.84
2024-04-23T07:31:50.670Z,102103.13
2024-04-23T07:34:12.484Z,102106.38
2024-04-23T07:36:34.430Z,102098.59
2024-04-23T07:38:56.689Z,102100.41
2024-04-23T07:41:18.581Z,102103.28
2024-04-23T07:43:43.638Z,102101.41
2024-04-23T07:46:05.534Z,102096.03
2024-04-23T07:48:27.621Z,102093.66
2024-04-23T07:50:51.390Z,102095.66
2024-04-23T07:53:13.259Z,102098.72
2024-04-23T07:55:35.118Z,102092.72
2024-04-23T07:57:56.961Z,102098.31
2024-04-23T08:00:20.032Z,102089.47
2024-04-23T08:02:44.676Z,102092.16
2024-04-23T08:05:07.750Z,102090.06
2024-04-23T08:07:29.711Z,102088.47
2024-04-23T08:09:51.522Z,102080.97
2024-04-23T08:12:13.340Z,102096.50
2024-04-23T08:14:35.211Z,102089.25
2024-04-23T08:16:57.241Z,102086.50
2024-04-23T08:19:19.201Z,102080.50
2024-04-23T08:21:41.398Z,102083.25
2024-04-23T08:24:03.326Z,102073.72
2024-04-23T08:26:25.218Z,102075.41
2024-04-23T08:28:48.025Z,102077.47
2024-04-23T08:31:09.936Z,102074.34
2024-04-23T08:33:31.932Z,102073.34
2024-04-23T08:35:57.223Z,102080.28
2024-04-23T08:38:19.096Z,102071.47
2024-04-23T08:40:41.035Z,102081.81
2024-04-23T08:43:16.390Z,102077.00
2024-04-23T08:45:41.454Z,102077.19
2024-04-23T08:48:05.276Z,102071.19
2024-04-23T08:50:29.006Z,102064.91
2024-04-23T08:52:51.754Z,102063.78
2024-04-23T08:55:13.744Z,102059.84
2024-04-23T08:57:37.348Z,102057.81
2024-04-23T09:00:00.470Z,102056.94
2024-04-23T09:02:31.015Z,102050.28
2024-04-23T09:04:59.329Z,102056.97
2024-04-23T09:07:28.050Z,102053.38
2024-04-23T09:09:55.878Z,102051.22
2024-04-23T09:12:18.076Z,102054.22
2024-04-23T09:14:39.984Z,102045.09
2024-04-23T09:17:02.406Z,102038.69
2024-04-23T09:19:25.605Z,102032.63
2024-04-23T09:21:48.317Z,102022.94
2024-04-23T09:24:10.166Z,102021.38
2024-04-23T09:26:32.915Z,102012.72
2024-04-23T09:28:54.919Z,102015.84
2024-04-23T09:31:21.972Z,102017.94
2024-04-23T09:33:55.035Z,102013.72
2024-04-23T09:36:16.924Z,102014.72
2024-04-23T09:38:42.714Z,102007.91
2024-04-23T09:41:06.391Z,102003.75
2024-04-23T09:43:28.405Z,102003.75
2024-04-23T09:45:52.031Z,102001.13
2024-04-23T09:48:16.037Z,101993.56
2024-04-23T09:50:38.126Z,101985.19
2024-04-23T09:53:11.073Z,101987.03
2024-04-23T09:55:33.188Z,101982.78
2024-04-23T09:57:55.140Z,101986.63
2024-04-23T10:00:20.635Z,101979.06
2024-04-23T10:02:45.793Z,101978.50
2024-04-23T10:05:14.539Z,101983.41
2024-04-23T10:08:05.549Z,101982.84
2024-04-23T10:10:53.420Z,101967.06
2024-04-23T10:13:22.994Z,101978.78
2024-04-23T10:15:57.119Z,101974.63
2024-04-23T10:18:36.273Z,101967.84
2024-04-23T10:21:02.629Z,101970.47
2024-04-23T10:23:25.206Z,101971.84
2024-04-23T10:25:48.392Z,101962.16
2024-04-23T10:28:10.683Z,101964.66
2024-04-23T10:30:34.411Z,101958.59
2024-04-23T10:32:58.548Z,101966.34
2024-04-23T10:35:22.923Z,101957.44
2024-04-23T10:37:47.007Z,101951.63
2024-04-23T10:40:12.958Z,101953.63
2024-04-23T10:42:34.889Z,101941.75
2024-04-23T10:44:58.336Z,101939.84
2024-04-23T10:47:20.489Z,101935.66
2024-04-23T10:49:42.817Z,101929.19
2024-04-23T10:52:06.639Z,101925.19
2024-04-23T10:54:30.128Z,101919.72
2024-04-23T10:57:09.204Z,101910.84
2024-04-23T10:59:33.703Z,101912.13
2024-04-23T11:02:07.341Z,101906.31
2024-04-23T11:04:46.554Z,101915.00
2024-04-23T11:07:11.910Z,101910.22
2024-04-23T11:09:39.042Z,101913.66
2024-04-23T11:12:01.488Z,101905.38
2024-04-23T11:14:38.882Z,101905.19
2024-04-23T11:17:06.225Z,101908.59
2024-04-23T11:19:49.902Z,101902.25
2024-04-23T11:22:15.114Z,101900.56
2024-04-23T11:24:45.201Z,101903.63
2024-04-23T11:27:07.711Z,101896.09
2024-04-23T11:29:30.139Z,101903.22
2024-04-23T11:31:53.988Z,101895.44
2024-04-23T11:34:16.362Z,101890.72
2024-04-23T11:36:39.400Z,101889.25
2024-04-23T11:39:07.629Z,101889.75
2024-04-23T11:41:29.520Z,101889.09
2024-04-23T11:43:51.465Z,101882.97
2024-04-23T11:46:15.574Z,101879.97
2024-04-23T11:48:37.482Z,101873.31
2024-04-23T11:50:59.650Z,101872.97
2024-04-23T11:53:23.042Z,101870.53
2024-04-23T11:55:44.948Z,101867.28
2024-04-23T11:58:06.949Z,101860.59
2024-04-23T12:00:29.202Z,101857.84
2024-04-23T12:02:51.084Z,101858.75
2024-04-23T12:05:15.814Z,101853.88
2024-04-23T12:07:40.121Z,101854.41
2024-04-23T12:10:05.427Z,101858.00
2024-04-23T12:12:27.791Z,101841.41
2024-04-23T12:14:49.687Z,101840.91
2024-04-23T12:17:12.754Z,101841.56
2024-04-23T12:19:37.884Z,101840.22
2024-04-23T12:22:02.804Z,101844.63
2024-04-23T12:24:29.343Z,101843.06
2024-04-23T12:26:54.241Z,101837.88
2024-04-23T12:29:16.094Z,101830.47
2024-04-23T12:31:39.202Z,101833.94
2024-04-23T12:34:01.872Z,101831.22
2024-04-23T12:36:23.835Z,101833.09
2024-04-23T12:38:47.184Z,101830.81
2024-04-23T12:41:09.110Z,101829.63
2024-04-23T12:43:31.011Z,101827.66
2024-04-23T12:45:52.777Z,101835.97
2024-04-23T12:48:14.865Z,101822.50
2024-04-23T12:50:36.827Z,101819.91
2024-04-23T12:52:59.172Z,101816.66
2024-04-23T12:55:21.146Z,101817.94
2024-04-23T12:57:43.247Z,101811.66
2024-04-23T13:00:05.892Z,101807.78
2024-04-23T13:02:27.914Z,101814.72
2024-04-23T13:04:49.838Z,101810.00
2024-04-23T13:07:13.118Z,101802.03
2024-04-23T13:09:35.937Z,101795.84
2024-04-23T13:12:00.733Z,101794.53
2024-04-23T13:14:22.715Z,101785.22
2024-04-23T13:16:48.969Z,101778.06
2024-04-23T13:19:11.694Z,101776.59
2024-04-23T13:21:33.572Z,101779.22
2024-04-23T13:23:55.448Z,101767.03
2024-04-23T13:26:17.280Z,101766.41
2024-04-23T13:28:39.249Z,101765.72
2024-04-23T13:31:01.128Z,101754.44
2024-04-23T13:33:23.365Z,101760.03
2024-04-23T13:35:45.230Z,101749.84
2024-04-23T13:38:07.145Z,101744.38
2024-04-23T13:40:30.690Z,101739.50
2024-04-23T13:42:52.516Z,101738.41
2024-04-23T13:45:14.421Z,101733.34
2024-04-23T13:47:41.326Z,101726.88
2024-04-23T13:50:08.421Z,101732.84
2024-04-23T13:52:30.487Z,101732.03
2024-04-23T13:54:52.330Z,101721.72
2024-04-23T13:57:14.137Z,101715.72
2024-04-23T13:59:36.635Z,101710.59
2024-04-23T14:02:02.624Z,101714.84
2024-04-23T14:04:24.988Z,101716.44
2024-04-23T14:06:47.712Z,101716.41
2024-04-23T14:09:09.762Z,101711.84
2024-04-23T14:11:32.033Z,101702.84
2024-04-23T14:13:54.005Z,101702.06
2024-04-23T14:16:15.872Z,101704.38
2024-04-23T14:18:38.982Z,101697.28
2024-04-23T14:21:01.268Z,101692.72
2024-04-23T14:23:23.117Z,101687.66
2024-04-23T14:25:45.010Z,101687.03
2024-04-23T14:28:11.017Z,101686.75
2024-04-23T14:30:33.122Z,101686.56
2024-04-23T14:32:55.043Z,101676.78
2024-04-23T14:35:17.040Z,101674.88
2024-04-23T14:37:39.222Z,101679.16
2024-04-23T14:40:03.609Z,101666.47
2024-04-23T14:42:27.002Z,101674.38
2024-04-23T14:44:50.845Z,101669.06
2024-04-23T14:47:12.938Z,101656.75
2024-04-23T14:49:34.790Z,101656.50
2024-04-23T14:51:56.961Z,101659.31
2024-04-23T14:54:18.804Z,101641.34
2024-04-23T14:56:40.638Z,101642.03
2024-04-23T14:59:02.757Z,101641.16
2024-04-23T15:01:25.898Z,101632.38
2024-04-23T15:03:47.880Z,101637.91
2024-04-23T15:06:12.343Z,101626.78
2024-04-23T15:08:36.690Z,101629.06
2024-04-23T15:10:58.695Z,101627.25
2024-04-23T15:13:22.865Z,101619.94
2024-04-23T15:15:45.921Z,101620.91
2024-04-23T15:18:08.405Z,101611.47
2024-04-23T15:20:30.404Z,101611.94
2024-04-23T15:22:55.358Z,101614.00
2024-04-23T15:25:17.748Z,101615.28
2024-04-23T15:27:39.528Z,101613.69
2024-04-23T15:30:01.394Z,101611.72
2024-04-23T15:32:23.507Z,101618.91
2024-04-23T15:34:45.349Z,101608.72
2024-04-23T15:37:07.482Z,101605.03
2024-04-23T15:39:29.366Z,101598.31
2024-04-23T15:41:51.206Z,101606.09
2024-04-23T15:44:13.115Z,101601.22
2024-04-23T15:46:35.148Z,101609.31
2024-04-23T15:48:58.678Z,101593.44
2024-04-23T15:51:20.520Z,101587.75
2024-04-23T15:53:42.349Z,101590.66
2024-04-23T15:56:05.705Z,101587.84
2024-04-23T15:58:31.950Z,101588.66
2024-04-23T16:00:53.888Z,101592.66
2024-04-23T16:03:16.104Z,101578.47
2024-04-23T16:05:38.104Z,101573.25
2024-04-23T16:07:59.984Z,101574.53
2024-04-23T16:10:21.832Z,101568.28
2024-04-23T16:12:43.728Z,101574.22
2024-04-23T16:15:06.113Z,101562.16
2024-04-23T16:17:28.002Z,101568.44
2024-04-23T16:19:49.957Z,101562.28
2024-04-23T16:22:11.805Z,101562.66
2024-04-23T16:24:33.689Z,101554.44
2024-04-23T16:26:57.030Z,101563.44
2024-04-23T16:29:20.513Z,101557.63
2024-04-23T16:31:42.518Z,101554.53
2024-04-23T16:34:04.402Z,101553.28
2024-04-23T16:36:28.421Z,101549.31
2024-04-23T16:38:50.306Z,101546.44
2024-04-23T16:41:12.260Z,101551.34
2024-04-23T16:43:34.684Z,101539.81
2024-04-23T16:46:10.363Z,101540.13
2024-04-23T16:48:36.579Z,101540.13
2024-04-23T16:50:58.810Z,101536.56
2024-04-23T16:53:21.795Z,101530.09
2024-04-23T16:55:44.808Z,101526.69
2024-04-23T16:58:07.285Z,101529.00
2024-04-23T17:00:29.509Z,101526.72
2024-04-23T17:02:51.545Z,101524.16
2024-04-23T17:05:14.252Z,101525.78
2024-04-23T17:07:36.826Z,101519.97
2024-04-23T17:09:59.379Z,101517.69
2024-04-23T17:12:21.468Z,101518.84
2024-04-23T17:14:43.669Z,101515.91
2024-04-23T17:17:06.324Z,101510.38
2024-04-23T17:19:28.437Z,101512.00
2024-04-23T17:21:52.220Z,101506.66
2024-04-23T17:24:14.642Z,101507.16
2024-04-23T17:26:37.589Z,101503.09
2024-04-23T17:29:01.321Z,101507.66
2024-04-23T17:31:26.526Z,101507.31
2024-04-23T17:33:50.085Z,101506.31
2024-04-23T17:36:12.608Z,101509.56
2024-04-23T17:38:35.195Z,101504.38
2024-04-23T17:40:57.438Z,101502.41
2024-04-23T17:43:19.588Z,101501.91
2024-04-23T17:45:41.809Z,101502.69
2024-04-23T17:48:04.353Z,101500.75
2024-04-23T17:50:26.370Z,101499.75
2024-04-23T17:52:51.224Z,101495.97
2024-04-23T17:55:13.481Z,101507.78
2024-04-23T17:57:35.692Z,101500.75
2024-04-23T17:59:57.819Z,101505.72
2024-04-23T18:02:19.787Z,101504.56
2024-04-23T18:04:41.995Z,101499.81
2024-04-23T18:07:04.090Z,101497.81
2024-04-23T18:09:28.055Z,101494.34
2024-04-23T18:11:50.070Z,101492.06
2024-04-23T18:14:12.203Z,101489.22
2024-04-23T18:16:35.298Z,101485.81
2024-04-23T18:19:00.683Z,101490.44
2024-04-23T18:21:25.093Z,101484.50
2024-04-23T18:23:48.766Z,101480.34
2024-04-23T18:26:11.893Z,101481.22
2024-04-23T18:28:38.419Z,101474.34
2024-04-23T18:31:06.799Z,101469.56
2024-04-23T18:33:31.327Z,101469.25
2024-04-23T18:35:53.909Z,101462.63
2024-04-23T18:40:37.878Z,101463.34
2024-04-23T18:42:59.820Z,101457.16
2024-04-23T18:45:22.170Z,101454.72
2024-04-23T18:47:44.608Z,101445.97
2024-04-23T18:50:07.585Z,101449.53
2024-04-23T18:52:29.486Z,101443.72
2024-04-23T18:54:51.686Z,101442.63
2024-04-23T18:57:17.507Z,101433.84
2024-04-23T18:59:39.602Z,101431.91
2024-04-23T19:02:03.286Z,101430.19
2024-04-23T19:04:25.386Z,101421.13
2024-04-23T19:06:47.751Z,101424.97
2024-04-23T19:09:10.098Z,101422.53
2024-04-23T19:11:32.966Z,101423.28
2024-04-23T19:14:06.847Z,101421.97
2024-04-23T19:16:33.660Z,101417.78
2024-04-23T19:18:57.306Z,101424.81
2024-04-23T19:21:23.750Z,101424.59
2024-04-23T19:23:45.907Z,101413.19
2024-04-23T19:26:08.632Z,101410.94
2024-04-23T19:28:34.543Z,101412.16
2024-04-23T19:30:57.322Z,101414.41
2024-04-23T19:33:19.363Z,101413.28
2024-04-23T19:35:41.504Z,101411.53
2024-04-23T19:38:03.643Z,101410.59
2024-04-23T19:40:27.625Z,101416.84
2024-04-23T19:42:51.864Z,101412.78
2024-04-23T19:45:15.444Z,101413.59
2024-04-23T19:47:38.401Z,101405.22
2024-04-23T19:50:00.880Z,101409.91
2024-04-23T19:52:24.004Z,101405.34
2024-04-23T19:54:46.457Z,101400.88
2024-04-23T19:57:08.469Z,101396.47
2024-04-23T19:59:33.250Z,101403.09
2024-04-23T20:01:55.507Z,101391.94
2024-04-23T20:04:17.738Z,101387.16
2024-04-23T20:06:40.075Z,101393.97
2024-04-23T20:09:04.752Z,101394.28
2024-04-23T20:11:26.779Z,101399.41
2024-04-23T20:13:48.713Z,101394.31
2024-04-23T20:16:10.807Z,101394.94
2024-04-23T20:18:33.495Z,101396.16
2024-04-23T20:20:55.847Z,101391.69
2024-04-23T20:23:17.918Z,101394.84
2024-04-23T20:25:41.964Z,101398.44
2024-04-23T20:28:15.349Z,101392.84
2024-04-23T20:30:37.987Z,101400.56
2024-04-23T20:32:59.995Z,101400.78
2024-04-23T20:35:23.170Z,101391.81
2024-04-23T20:37:45.165Z,101395.19
2024-04-23T20:40:07.922Z,101407.59
2024-04-23T20:42:32.854Z,101412.06
2024-04-23T20:44:54.794Z,101401.19
2024-04-23T20:47:16.964Z,101390.50
2024-04-23T20:49:39.034Z,101382.56
2024-04-23T20:52:01.119Z,101380.09
2024-04-23T20:54:23.124Z,101384.78
2024-04-23T20:56:45.044Z,101388.31
2024-04-23T20:59:07.301Z,101374.59
2024-04-23T21:01:29.340Z,101377.34
2024-04-23T21:03:51.340Z,101373.78
2024-04-23T21:06:14.417Z,101371.84
2024-04-23T21:08:42.711Z,101377.88
2024-04-23T21:11:13.768Z,101377.59
2024-04-23T21:13:35.762Z,101379.72
2024-04-23T21:15:57.756Z,101376.69
2024-04-23T21:18:19.828Z,101375.88
2024-04-23T21:20:41.832Z,101379.63
2024-04-23T21:23:03.987Z,101367.00
2024-04-23T21:25:26.008Z,101368.03
2024-04-23T21:27:50.419Z,101364.66
2024-04-23T21:30:12.309Z,101374.84
2024-04-23T21:32:34.535Z,101367.19
2024-04-23T21:34:56.653Z,101368.84
2024-04-23T21:37:18.717Z,101359.88
2024-04-23T21:39:40.633Z,101366.31
2024-04-23T21:42:02.689Z,101359.34
2024-04-23T21:44:24.667Z,101347.16
2024-04-23T21:46:47.740Z,101358.25
2024-04-23T21:49:09.937Z,101351.22
2024-04-23T21:51:35.799Z,101351.94
2024-04-23T21:53:58.472Z,101364.63
2024-04-23T21:56:20.536Z,101360.38
2024-04-23T21:59:34.028Z,101361.56
2024-04-23T22:01:56.048Z,101359.53
2024-04-23T22:04:18.174Z,101355.84
2024-04-23T22:06:40.197Z,101364.16
2024-04-23T22:09:05.424Z,101364.25
2024-04-23T22:11:28.002Z,101365.44
2024-04-23T22:13:50.123Z,101361.69
2024-04-23T22:16:12.235Z,101356.25
2024-04-23T22:18:34.386Z,101363.47
2024-04-23T22:20:56.303Z,101355.34
2024-04-23T22:23:18.543Z,101354.59
2024-04-23T22:25:40.854Z,101354.38
2024-04-23T22:28:02.900Z,101353.06
2024-04-23T22:30:24.860Z,101347.34
2024-04-23T22:32:47.014Z,101353.94
2024-04-23T22:36:24.459Z,101347.94
2024-04-23T22:40:20.582Z,101343.06
2024-04-23T22:44:16.578Z,101343.06
2024-04-23T22:48:12.069Z,101343.16
2024-04-23T22:52:08.003Z,101337.16
2024-04-23T22:56:04.175Z,101337.50
2024-04-23T23:00:02.262Z,101326.13
2024-04-23T23:03:59.575Z,101327.88
2024-04-23T23:07:57.520Z,101325.75
2024-04-23T23:11:53.444Z,101315.09
2024-04-23T23:15:55.796Z,101307.78
2024-04-23T23:19:54.331Z,101303.47
2024-04-23T23:23:50.053Z,101304.06
2024-04-23T23:27:52.699Z,101299.69
2024-04-23T23:31:54.690Z,101298.88
2024-04-23T23:35:56.745Z,101298.59
2024-04-23T23:39:58.947Z,101300.53
2024-04-23T23:43:55.172Z,101294.97
2024-04-23T23:47:51.419Z,101291.09
2024-04-23T23:51:47.734Z,101297.09
2024-04-23T23:55:49.697Z,101284.47
2024-04-23T23:59:52.086Z,101281.72
